createdAt,value
2022-11-30T00:00:44.892Z,3.45
2022-11-30T00:01:44.872Z,3.42
2022-11-30T00:02:45.296Z,3.46
2022-11-30T00:03:44.839Z,3.45
2022-11-30T00:04:45.375Z,3.43
2022-11-30T00:05:45.226Z,3.43
2022-11-30T00:06:45.039Z,3.43
2022-11-30T00:07:45.187Z,3.42
2022-11-30T00:08:45.009Z,3.42
2022-11-30T00:09:44.482Z,3.48
2022-11-30T00:10:44.710Z,3.43
2022-11-30T00:11:44.439Z,3.48
2022-11-30T00:12:44.939Z,3.46
2022-11-30T00:13:44.687Z,3.43
2022-11-30T00:14:45.263Z,3.42
2022-11-30T00:15:44.623Z,3.43
2022-11-30T00:16:44.800Z,3.45
2022-11-30T00:17:44.849Z,3.4
2022-11-30T00:18:44.966Z,3.4
2022-11-30T00:19:44.560Z,3.48
2022-11-30T00:20:44.566Z,3.4
2022-11-30T00:21:44.542Z,3.45
2022-11-30T00:22:44.765Z,3.39
2022-11-30T00:23:44.485Z,3.42
2022-11-30T00:24:44.683Z,3.4
2022-11-30T00:25:44.469Z,3.43
2022-11-30T00:26:44.689Z,3.4
2022-11-30T00:27:44.415Z,3.4
2022-11-30T00:28:44.170Z,3.46
2022-11-30T00:29:44.379Z,3.42
2022-11-30T00:30:44.465Z,3.42
2022-11-30T00:31:44.346Z,3.45
2022-11-30T00:32:44.591Z,3.39
2022-11-30T00:33:44.314Z,3.37
2022-11-30T00:34:44.656Z,3.37
2022-11-30T00:35:44.273Z,3.39
2022-11-30T00:36:44.555Z,3.32
2022-11-30T00:37:44.522Z,3.37
2022-11-30T00:38:43.995Z,3.34
2022-11-30T00:39:44.199Z,3.4
2022-11-30T00:40:43.935Z,3.3
2022-11-30T00:41:44.425Z,3.37
2022-11-30T00:42:44.156Z,3.34
2022-11-30T00:43:44.392Z,3.3
2022-11-30T00:44:44.640Z,3.4
2022-11-30T00:45:44.196Z,3.39
2022-11-30T00:46:43.822Z,3.34
2022-11-30T00:47:44.073Z,3.32
2022-11-30T00:48:44.302Z,3.3
2022-11-30T00:49:44.291Z,3.32
2022-11-30T00:50:44.035Z,3.27
2022-11-30T00:51:43.736Z,3.17
2022-11-30T00:52:44.270Z,3.21
2022-11-30T00:53:44.251Z,3.21
2022-11-30T00:54:44.382Z,3.24
2022-11-30T00:55:43.938Z,3.3
2022-11-30T00:56:43.661Z,3.24
2022-11-30T00:57:44.170Z,3.32
2022-11-30T00:58:44.129Z,3.24
2022-11-30T00:59:43.862Z,3.2
2022-11-30T01:00:43.891Z,3.21
2022-11-30T01:01:44.001Z,3.21
2022-11-30T01:02:44.113Z,3.29
2022-11-30T01:03:43.795Z,3.19
2022-11-30T01:04:43.641Z,3.24
2022-11-30T01:05:44.004Z,3.19
2022-11-30T01:06:43.758Z,3.26
2022-11-30T01:07:43.878Z,3.19
2022-11-30T01:08:43.734Z,3.27
2022-11-30T01:09:43.956Z,3.24
2022-11-30T01:10:43.669Z,3.2
2022-11-30T01:11:43.640Z,3.2
2022-11-30T01:12:43.648Z,3.2
2022-11-30T01:13:43.603Z,3.17
2022-11-30T01:14:43.337Z,3.21
2022-11-30T01:15:43.872Z,3.21
2022-11-30T01:16:43.582Z,3.23
2022-11-30T01:17:43.792Z,3.2
2022-11-30T01:18:43.785Z,3.19
2022-11-30T01:19:43.503Z,3.27
2022-11-30T01:20:43.237Z,3.19
2022-11-30T01:21:43.470Z,3.2
2022-11-30T01:22:43.730Z,3.21
2022-11-30T01:23:43.181Z,3.17
2022-11-30T01:24:43.614Z,3.13
2022-11-30T01:25:43.423Z,3.24
2022-11-30T01:26:43.382Z,3.16
2022-11-30T01:27:43.365Z,3.16
2022-11-30T01:28:43.599Z,3.11
2022-11-30T01:29:43.068Z,3.11
2022-11-30T01:30:43.573Z,3.16
2022-11-30T01:31:43.544Z,3.05
2022-11-30T01:32:43.270Z,3.16
2022-11-30T01:33:43.504Z,3.17
2022-11-30T01:35:42.958Z,3.21
2022-11-30T01:36:43.201Z,3.27
2022-11-30T01:37:43.451Z,3.24
2022-11-30T01:38:43.195Z,3.21
2022-11-30T01:39:43.142Z,3.23
2022-11-30T01:40:43.157Z,3.24
2022-11-30T01:41:43.388Z,3.17
2022-11-30T01:42:43.097Z,3.16
2022-11-30T01:43:43.081Z,3.16
2022-11-30T01:44:43.331Z,3.16
2022-11-30T01:45:43.042Z,3.16
2022-11-30T01:46:43.156Z,3.05
2022-11-30T01:47:43.269Z,3.17
2022-11-30T01:48:42.735Z,3.13
2022-11-30T01:49:43.224Z,3.21
2022-11-30T01:50:42.952Z,3.14
2022-11-30T01:51:42.933Z,3.2
2022-11-30T01:52:43.178Z,3.11
2022-11-30T01:53:43.161Z,3.14
2022-11-30T01:54:42.918Z,3.14
2022-11-30T01:55:42.607Z,3.16
2022-11-30T01:56:43.136Z,3.17
2022-11-30T01:57:42.851Z,3.19
2022-11-30T01:58:42.555Z,3.14
2022-11-30T01:59:42.801Z,3.16
2022-11-30T02:00:42.779Z,3.2
2022-11-30T02:01:42.955Z,3.09
2022-11-30T02:02:42.916Z,3.14
2022-11-30T02:03:43.008Z,3.08
2022-11-30T02:04:42.705Z,3.21
2022-11-30T02:05:42.962Z,3.16
2022-11-30T02:06:42.423Z,3.14
2022-11-30T02:07:43.429Z,3.16
2022-11-30T02:08:43.196Z,3.2
2022-11-30T02:09:42.871Z,3.17
2022-11-30T02:10:42.886Z,3.13
2022-11-30T02:11:42.334Z,3.21
2022-11-30T02:12:42.592Z,3.14
2022-11-30T02:13:42.849Z,3.2
2022-11-30T02:14:42.935Z,3.16
2022-11-30T02:15:42.772Z,3.21
2022-11-30T02:16:42.651Z,3.19
2022-11-30T02:17:42.230Z,3.16
2022-11-30T02:18:42.732Z,3.14
2022-11-30T02:19:42.733Z,3.19
2022-11-30T02:20:42.472Z,3.23
2022-11-30T02:21:42.501Z,3.16
2022-11-30T02:22:42.641Z,3.05
2022-11-30T02:23:47.901Z,3.2
2022-11-30T02:24:42.613Z,3.11
2022-11-30T02:25:42.414Z,3.06
2022-11-30T02:26:42.959Z,3.08
2022-11-30T02:27:42.375Z,3.11
2022-11-30T02:28:42.570Z,3.06
2022-11-30T02:29:42.551Z,3.13
2022-11-30T02:30:42.600Z,3.14
2022-11-30T02:31:42.484Z,3.11
2022-11-30T02:32:42.640Z,3.13
2022-11-30T02:33:42.193Z,3.08
2022-11-30T02:34:42.170Z,3.14
2022-11-30T02:35:42.423Z,3.06
2022-11-30T02:36:42.395Z,3.13
2022-11-30T02:37:42.377Z,3.19
2022-11-30T02:38:42.358Z,3.03
2022-11-30T02:39:42.356Z,3.11
2022-11-30T02:40:41.808Z,3.11
2022-11-30T02:41:42.886Z,3.14
2022-11-30T02:42:42.056Z,3.08
2022-11-30T02:43:42.267Z,3.05
2022-11-30T02:44:42.274Z,3.09
2022-11-30T02:45:42.254Z,3.03
2022-11-30T02:46:42.104Z,3.06
2022-11-30T02:47:41.686Z,3.08
2022-11-30T02:48:42.183Z,3.09
2022-11-30T02:49:41.914Z,3.05
2022-11-30T02:50:42.273Z,3.06
2022-11-30T02:51:42.269Z,3.05
2022-11-30T02:52:42.493Z,3.08
2022-11-30T02:53:42.216Z,3.09
2022-11-30T02:54:42.200Z,3.09
2022-11-30T02:55:42.180Z,3.16
2022-11-30T02:56:42.163Z,3.03
2022-11-30T02:57:42.143Z,3.06
2022-11-30T02:58:42.154Z,3.13
2022-11-30T02:59:42.110Z,3.03
2022-11-30T03:00:42.120Z,3.02
2022-11-30T03:01:42.375Z,3.08
2022-11-30T03:02:42.371Z,3.05
2022-11-30T03:03:42.045Z,3.08
2022-11-30T03:04:42.276Z,3.16
2022-11-30T03:05:42.258Z,3.05
2022-11-30T03:06:42.242Z,3.11
2022-11-30T03:07:42.126Z,3.09
2022-11-30T03:08:42.213Z,3.14
2022-11-30T03:09:41.932Z,3.01
2022-11-30T03:10:41.658Z,3.14
2022-11-30T03:11:41.895Z,3.06
2022-11-30T03:12:41.876Z,3.03
2022-11-30T03:13:41.854Z,3.08
2022-11-30T03:14:42.118Z,3.05
2022-11-30T03:15:42.265Z,3.14
2022-11-30T03:16:42.087Z,3.11
2022-11-30T03:17:41.817Z,3.11
2022-11-30T03:18:41.765Z,3.05
2022-11-30T03:19:41.492Z,3.06
2022-11-30T03:20:41.738Z,3.08
2022-11-30T03:21:41.713Z,3.06
2022-11-30T03:22:41.955Z,3.05
2022-11-30T03:23:41.683Z,3.02
2022-11-30T03:24:41.658Z,3.08
2022-11-30T03:25:41.901Z,3.05
2022-11-30T03:26:41.628Z,3.05
2022-11-30T03:27:41.348Z,3.11
2022-11-30T03:28:41.848Z,3.01
2022-11-30T03:29:41.878Z,3.01
2022-11-30T03:30:41.833Z,3.05
2022-11-30T03:31:41.282Z,3.08
2022-11-30T03:32:41.800Z,3.02
2022-11-30T03:50:27.501Z,3.02
2022-11-30T03:51:26.889Z,2.93
2022-11-30T03:52:27.118Z,2.93
2022-11-30T03:53:27.104Z,3.01
2022-11-30T03:54:27.078Z,2.85
2022-11-30T03:55:27.145Z,2.99
2022-11-30T03:56:26.784Z,3.01
2022-11-30T03:57:27.279Z,2.91
2022-11-30T03:58:27.004Z,2.91
2022-11-30T03:59:26.988Z,2.93
2022-11-30T04:00:27.246Z,2.98
2022-11-30T04:01:27.297Z,2.85
2022-11-30T04:02:27.541Z,2.9
2022-11-30T04:03:27.264Z,2.83
2022-11-30T04:04:27.140Z,2.88
2022-11-30T04:05:26.871Z,2.83
2022-11-30T04:06:27.184Z,2.81
2022-11-30T04:07:27.110Z,2.83
2022-11-30T04:08:26.812Z,2.78
2022-11-30T04:09:27.059Z,2.91
2022-11-30T04:10:26.774Z,2.84
2022-11-30T04:11:26.788Z,2.91
2022-11-30T04:12:27.000Z,2.88
2022-11-30T04:13:26.725Z,2.83
2022-11-30T04:14:26.450Z,2.9
2022-11-30T04:15:26.682Z,2.84
2022-11-30T04:16:26.691Z,2.91
2022-11-30T04:17:26.902Z,2.93
2022-11-30T04:18:26.630Z,2.81
2022-11-30T04:19:26.611Z,2.8
2022-11-30T04:20:26.340Z,2.83
2022-11-30T04:21:26.837Z,2.87
2022-11-30T04:22:26.896Z,2.83
2022-11-30T04:23:26.285Z,2.91
2022-11-30T04:24:26.768Z,2.84
2022-11-30T04:25:26.244Z,2.77
2022-11-30T04:26:26.823Z,2.81
2022-11-30T04:27:26.206Z,2.8
2022-11-30T04:28:26.187Z,2.83
2022-11-30T04:29:26.429Z,2.78
2022-11-30T04:30:26.663Z,2.81
2022-11-30T04:31:26.600Z,2.84
2022-11-30T04:32:26.117Z,2.84
2022-11-30T04:33:26.366Z,2.81
2022-11-30T04:34:26.330Z,2.77
2022-11-30T04:35:26.569Z,2.85
2022-11-30T04:36:26.292Z,2.78
2022-11-30T04:37:26.277Z,2.88
2022-11-30T04:38:26.598Z,2.96
2022-11-30T04:39:26.238Z,2.9
2022-11-30T04:40:25.970Z,2.78
2022-11-30T04:41:26.209Z,2.83
2022-11-30T04:42:26.443Z,2.87
2022-11-30T04:43:26.176Z,2.91
2022-11-30T04:44:26.407Z,2.78
2022-11-30T04:45:25.886Z,2.84
2022-11-30T04:46:26.606Z,2.84
2022-11-30T04:47:26.101Z,2.76
2022-11-30T04:48:26.335Z,2.84
2022-11-30T04:49:26.058Z,2.84
2022-11-30T04:50:26.046Z,2.88
2022-11-30T04:51:26.028Z,2.83
2022-11-30T04:52:26.001Z,2.85
2022-11-30T04:53:25.733Z,2.77
2022-11-30T04:54:26.301Z,2.96
2022-11-30T04:55:25.961Z,2.8
2022-11-30T04:56:25.932Z,2.81
2022-11-30T04:57:26.179Z,2.9
2022-11-30T04:58:25.650Z,2.83
2022-11-30T04:59:25.883Z,2.88
2022-11-30T05:00:26.123Z,2.87
2022-11-30T05:01:26.330Z,2.84
2022-11-30T05:02:25.838Z,2.87
2022-11-30T05:03:25.818Z,2.8
2022-11-30T05:04:25.746Z,2.93
2022-11-30T05:05:25.771Z,2.93
2022-11-30T05:06:25.498Z,3.01
2022-11-30T05:07:25.943Z,2.96
2022-11-30T05:08:25.971Z,2.9
2022-11-30T05:09:25.953Z,2.87
2022-11-30T05:10:26.025Z,2.95
2022-11-30T05:11:25.678Z,2.85
2022-11-30T05:12:25.901Z,2.91
2022-11-30T05:13:25.631Z,2.87
2022-11-30T05:14:25.866Z,2.87
2022-11-30T05:15:25.899Z,2.99
2022-11-30T05:16:25.538Z,2.9
2022-11-30T05:17:25.559Z,2.96
2022-11-30T05:18:25.793Z,2.91
2022-11-30T05:19:25.519Z,2.91
2022-11-30T05:20:25.754Z,2.84
2022-11-30T05:21:25.498Z,2.83
2022-11-30T05:22:25.460Z,2.85
2022-11-30T05:23:25.707Z,2.84
2022-11-30T05:24:25.719Z,2.95
2022-11-30T05:25:25.671Z,2.77
2022-11-30T05:26:25.724Z,2.78
2022-11-30T05:27:27.392Z,2.81
2022-11-30T05:28:25.611Z,2.84
2022-11-30T05:29:25.589Z,2.8
2022-11-30T05:30:25.655Z,2.9
2022-11-30T05:31:25.210Z,2.83
2022-11-30T05:32:25.540Z,2.83
2022-11-30T05:33:25.265Z,2.8
2022-11-30T05:34:25.245Z,2.85
2022-11-30T05:35:25.014Z,2.83
2022-11-30T05:36:25.472Z,2.9
2022-11-30T05:37:25.454Z,2.85
2022-11-30T05:38:25.196Z,2.95
2022-11-30T05:39:25.174Z,2.77
2022-11-30T05:40:25.142Z,2.81
2022-11-30T05:41:24.880Z,2.78
2022-11-30T05:42:25.437Z,2.88
2022-11-30T05:43:25.081Z,2.88
2022-11-30T05:44:25.064Z,2.83
2022-11-30T05:45:25.049Z,2.85
2022-11-30T05:46:25.473Z,2.85
2022-11-30T05:47:24.760Z,2.93
2022-11-30T05:48:24.990Z,2.8
2022-11-30T05:49:24.978Z,2.78
2022-11-30T05:50:24.705Z,2.77
2022-11-30T05:51:25.201Z,2.8
2022-11-30T05:52:24.917Z,2.78
2022-11-30T05:53:24.919Z,2.81
2022-11-30T05:54:24.925Z,2.85
2022-11-30T05:55:25.148Z,2.8
2022-11-30T05:56:24.642Z,2.73
2022-11-30T05:57:25.086Z,2.85
2022-11-30T05:58:25.152Z,2.7
2022-11-30T05:59:25.054Z,2.69
2022-11-30T06:00:24.776Z,2.81
2022-11-30T06:01:25.032Z,2.78
2022-11-30T06:02:31.473Z,2.76
2022-11-30T06:03:24.866Z,2.72
2022-11-30T06:04:24.979Z,2.77
2022-11-30T06:05:24.946Z,2.72
2022-11-30T06:06:24.930Z,2.76
2022-11-30T06:07:25.044Z,2.78
2022-11-30T06:08:24.910Z,2.78
2022-11-30T06:09:24.874Z,2.81
2022-11-30T06:10:24.856Z,2.73
2022-11-30T06:11:24.843Z,2.76
2022-11-30T06:12:24.302Z,2.78
2022-11-30T06:13:31.565Z,2.67
2022-11-30T06:14:24.824Z,2.81
2022-11-30T06:15:24.772Z,2.76
2022-11-30T06:16:24.907Z,2.8
2022-11-30T06:17:24.217Z,2.78
2022-11-30T06:18:24.712Z,2.81
2022-11-30T06:19:24.444Z,2.73
2022-11-30T06:20:24.422Z,2.69
2022-11-30T06:21:29.462Z,2.83
2022-11-30T06:22:24.381Z,2.81
2022-11-30T06:23:24.364Z,2.72
2022-11-30T06:24:24.101Z,2.69
2022-11-30T06:25:24.329Z,2.67
2022-11-30T06:26:24.095Z,2.72
2022-11-30T06:27:24.727Z,2.6
2022-11-30T06:28:24.277Z,2.63
2022-11-30T06:29:24.725Z,2.63
2022-11-30T06:30:24.263Z,2.65
2022-11-30T06:31:24.387Z,2.59
2022-11-30T06:32:24.200Z,2.66
2022-11-30T06:33:24.182Z,2.63
2022-11-30T06:34:24.163Z,2.69
2022-11-30T06:35:24.405Z,2.62
2022-11-30T06:36:24.392Z,2.78
2022-11-30T06:37:24.803Z,2.66
2022-11-30T06:38:24.529Z,2.65
2022-11-30T06:40:10.898Z,2.72
2022-11-30T06:40:24.739Z,2.73
2022-11-30T06:41:24.470Z,2.8
2022-11-30T06:42:24.730Z,2.66
2022-11-30T06:43:24.431Z,2.7
2022-11-30T06:44:24.676Z,2.65
2022-11-30T06:45:24.464Z,2.81
2022-11-30T06:46:24.740Z,2.81
2022-11-30T06:47:24.520Z,2.69
2022-11-30T06:48:24.513Z,2.67
2022-11-30T06:49:24.484Z,2.72
2022-11-30T06:50:24.724Z,2.7
2022-11-30T06:51:24.454Z,2.73
2022-11-30T06:52:24.684Z,2.76
2022-11-30T06:53:24.408Z,2.76
2022-11-30T06:54:24.420Z,2.72
2022-11-30T06:55:24.631Z,2.67
2022-11-30T06:56:24.625Z,2.67
2022-11-30T06:57:24.596Z,2.73
2022-11-30T06:58:24.580Z,2.78
2022-11-30T06:59:24.311Z,2.78
2022-11-30T07:00:24.292Z,2.8
2022-11-30T07:01:24.747Z,2.81
2022-11-30T07:02:24.534Z,2.78
2022-11-30T07:03:24.487Z,2.78
2022-11-30T07:04:24.629Z,2.78
2022-11-30T07:05:24.204Z,2.8
2022-11-30T07:06:23.932Z,2.8
2022-11-30T07:07:24.737Z,2.73
2022-11-30T07:08:24.401Z,2.76
2022-11-30T07:09:24.131Z,2.78
2022-11-30T07:10:25.309Z,2.78
2022-11-30T07:11:23.833Z,2.66
2022-11-30T07:12:24.071Z,2.66
2022-11-30T07:13:24.309Z,2.76
2022-11-30T07:14:23.780Z,2.73
2022-11-30T07:15:23.768Z,2.63
2022-11-30T07:16:24.408Z,2.65
2022-11-30T07:17:24.034Z,2.63
2022-11-30T07:18:31.815Z,2.65
2022-11-30T07:19:23.953Z,2.62
2022-11-30T07:20:24.182Z,2.66
2022-11-30T07:21:24.167Z,2.52
2022-11-30T07:22:23.637Z,2.62
2022-11-30T07:23:23.875Z,2.55
2022-11-30T07:24:24.120Z,2.59
2022-11-30T07:25:24.103Z,2.58
2022-11-30T07:26:24.073Z,2.62
2022-11-30T07:27:23.800Z,2.58
2022-11-30T07:28:23.784Z,2.55
2022-11-30T07:29:23.772Z,2.58
2022-11-30T07:30:23.769Z,2.59
2022-11-30T07:31:23.652Z,2.54
2022-11-30T07:32:23.464Z,2.58
2022-11-30T07:33:23.747Z,2.55
2022-11-30T07:34:23.954Z,2.59
2022-11-30T07:35:23.663Z,2.7
2022-11-30T07:36:23.897Z,2.65
2022-11-30T07:37:23.619Z,2.65
2022-11-30T07:38:23.857Z,2.66
2022-11-30T07:39:23.631Z,2.69
2022-11-30T07:40:23.566Z,2.73
2022-11-30T07:41:23.815Z,2.77
2022-11-30T07:42:23.532Z,2.83
2022-11-30T07:43:23.771Z,2.85
2022-11-30T07:44:23.757Z,2.83
2022-11-30T07:45:23.222Z,2.78
2022-11-30T07:46:23.956Z,2.87
2022-11-30T07:47:23.460Z,2.91
2022-11-30T07:48:23.419Z,2.96
2022-11-30T07:49:23.469Z,2.93
2022-11-30T07:50:23.705Z,2.95
2022-11-30T07:51:23.636Z,3.06
2022-11-30T07:52:23.608Z,3.09
2022-11-30T07:53:23.586Z,3.13
2022-11-30T07:54:23.570Z,3.24
2022-11-30T07:55:23.558Z,3.23
2022-11-30T07:56:23.280Z,3.27
2022-11-30T07:57:23.522Z,3.21
2022-11-30T07:58:23.501Z,3.34
2022-11-30T07:59:23.228Z,3.35
2022-11-30T08:00:23.464Z,3.51
2022-11-30T08:01:23.668Z,3.4
2022-11-30T08:02:23.657Z,3.51
2022-11-30T08:03:22.907Z,3.46
2022-11-30T08:04:23.330Z,3.54
2022-11-30T08:05:23.430Z,3.49
2022-11-30T08:06:23.139Z,3.57
2022-11-30T08:07:23.243Z,3.53
2022-11-30T08:08:23.325Z,3.54
2022-11-30T08:09:25.809Z,3.66
2022-11-30T08:10:23.293Z,3.69
2022-11-30T08:11:23.277Z,3.69
2022-11-30T08:12:23.275Z,3.72
2022-11-30T08:13:22.983Z,3.64
2022-11-30T08:14:23.237Z,3.76
2022-11-30T08:15:33.104Z,3.81
2022-11-30T08:16:23.455Z,3.86
2022-11-30T08:17:23.177Z,3.85
2022-11-30T08:18:23.153Z,3.85
2022-11-30T08:19:23.136Z,3.93
2022-11-30T08:20:22.854Z,3.94
2022-11-30T08:21:23.160Z,3.92
2022-11-30T08:22:23.104Z,3.96
2022-11-30T08:23:23.073Z,4.02
2022-11-30T08:24:23.003Z,4.11
2022-11-30T08:25:23.025Z,4.17
2022-11-30T08:26:22.748Z,4.17
2022-11-30T08:27:22.990Z,4.11
2022-11-30T08:28:22.712Z,4.12
2022-11-30T08:29:22.957Z,4.18
2022-11-30T08:30:25.267Z,4.2
2022-11-30T08:31:23.140Z,4.26
2022-11-30T08:32:22.915Z,4.36
2022-11-30T08:33:22.880Z,4.28
2022-11-30T08:34:22.611Z,4.36
2022-11-30T08:35:22.344Z,4.33
2022-11-30T08:36:22.572Z,4.24
2022-11-30T08:37:22.865Z,4.33
2022-11-30T08:38:22.827Z,4.26
2022-11-30T08:39:22.773Z,4.3
2022-11-30T08:40:22.509Z,4.24
2022-11-30T08:41:22.491Z,4.26
2022-11-30T08:42:22.472Z,4.24
2022-11-30T08:43:22.715Z,4.24
2022-11-30T08:44:22.195Z,4.26
2022-11-30T08:45:22.675Z,4.18
2022-11-30T08:46:54.646Z,4.3
2022-11-30T08:47:22.878Z,4.28
2022-11-30T08:48:22.627Z,4.38
2022-11-30T09:00:54.748Z,4.68
2022-11-30T09:01:04.933Z,4.74
2022-11-30T09:02:04.911Z,4.76
2022-11-30T09:03:04.550Z,4.9
2022-11-30T09:04:04.591Z,4.92
2022-11-30T09:05:05.284Z,4.94
2022-11-30T09:06:04.705Z,5.03
2022-11-30T09:07:05.206Z,5.06
2022-11-30T09:08:05.441Z,5.16
2022-11-30T09:09:05.170Z,5.16
2022-11-30T09:10:05.166Z,5.24
2022-11-30T09:11:05.133Z,5.3
2022-11-30T09:12:04.870Z,5.41
2022-11-30T09:13:05.112Z,5.48
2022-11-30T09:14:04.838Z,5.57
2022-11-30T09:15:05.549Z,5.63
2022-11-30T09:16:05.202Z,5.59
2022-11-30T09:17:04.837Z,5.66
2022-11-30T09:18:05.065Z,5.64
2022-11-30T09:19:05.316Z,5.62
2022-11-30T09:20:05.007Z,5.55
2022-11-30T09:21:04.716Z,5.62
2022-11-30T09:22:05.023Z,5.6
2022-11-30T09:23:04.429Z,5.66
2022-11-30T09:24:04.699Z,5.59
2022-11-30T09:25:04.654Z,5.64
2022-11-30T09:26:04.781Z,5.69
2022-11-30T09:27:04.878Z,5.73
2022-11-30T09:28:08.011Z,5.78
2022-11-30T09:29:04.604Z,5.77
2022-11-30T09:30:04.857Z,5.75
2022-11-30T09:31:04.989Z,5.75
2022-11-30T09:32:04.599Z,5.69
2022-11-30T09:33:04.557Z,5.6
2022-11-30T09:34:04.759Z,5.59
2022-11-30T09:35:06.623Z,5.46
2022-11-30T09:36:04.728Z,5.48
2022-11-30T09:37:04.732Z,5.59
2022-11-30T09:38:04.440Z,5.6
2022-11-30T09:39:04.421Z,5.63
2022-11-30T09:40:04.414Z,5.63
2022-11-30T09:41:04.393Z,5.67
2022-11-30T09:42:04.117Z,5.69
2022-11-30T09:43:04.103Z,5.64
2022-11-30T09:44:04.339Z,5.55
2022-11-30T09:45:04.587Z,5.49
2022-11-30T09:46:04.237Z,5.39
2022-11-30T09:47:04.289Z,5.34
2022-11-30T09:48:04.726Z,5.28
2022-11-30T09:49:04.543Z,5.28
2022-11-30T09:50:04.243Z,5.27
2022-11-30T09:51:04.489Z,5.16
2022-11-30T09:52:04.204Z,5.23
2022-11-30T09:53:04.197Z,5.13
2022-11-30T09:54:04.438Z,5.08
2022-11-30T09:55:04.413Z,4.97
2022-11-30T09:56:04.153Z,4.94
2022-11-30T09:57:04.127Z,4.95
2022-11-30T09:58:04.397Z,4.98
2022-11-30T09:59:04.360Z,4.94
2022-11-30T10:00:04.347Z,5.02
2022-11-30T10:01:10.003Z,5.15
2022-11-30T10:02:04.220Z,5.2
2022-11-30T10:03:04.604Z,5.21
2022-11-30T10:04:04.070Z,5.27
2022-11-30T10:05:04.279Z,5.23
2022-11-30T10:06:04.252Z,5.2
2022-11-30T10:07:04.226Z,5.26
2022-11-30T10:08:04.437Z,5.3
2022-11-30T10:09:03.938Z,5.28
2022-11-30T10:10:36.254Z,5.3
2022-11-30T10:11:03.647Z,5.26
2022-11-30T10:12:03.904Z,5.27
2022-11-30T10:13:04.128Z,5.3
2022-11-30T10:14:03.853Z,5.21
2022-11-30T10:15:05.412Z,5.21
2022-11-30T10:16:04.038Z,5.28
2022-11-30T10:17:03.802Z,5.27
2022-11-30T10:18:04.040Z,5.31
2022-11-30T10:19:03.765Z,5.2
2022-11-30T10:20:03.888Z,5.24
2022-11-30T10:21:04.020Z,5.26
2022-11-30T10:22:03.985Z,5.24
2022-11-30T10:23:03.961Z,5.31
2022-11-30T10:24:03.940Z,5.26
2022-11-30T10:25:08.687Z,5.3
2022-11-30T10:26:03.929Z,5.24
2022-11-30T10:27:03.919Z,5.3
2022-11-30T10:28:48.588Z,5.34
2022-11-30T10:29:03.612Z,5.36
2022-11-30T10:30:03.584Z,5.39
2022-11-30T10:31:03.908Z,5.42
2022-11-30T10:32:03.304Z,5.57
2022-11-30T10:33:03.541Z,5.8
2022-11-30T10:34:03.522Z,5.91
2022-11-30T10:35:03.249Z,5.96
2022-11-30T10:36:03.800Z,6.02
2022-11-30T10:37:03.767Z,6.13
2022-11-30T10:38:03.459Z,6.34
2022-11-30T10:39:03.714Z,6.44
2022-11-30T10:40:03.171Z,6.43
2022-11-30T10:41:03.677Z,6.47
2022-11-30T10:42:03.397Z,6.55
2022-11-30T10:43:03.636Z,6.55
2022-11-30T10:44:03.361Z,6.6
2022-11-30T10:45:03.353Z,6.65
2022-11-30T10:46:03.543Z,6.79
2022-11-30T10:47:03.466Z,6.86
2022-11-30T10:48:03.557Z,6.88
2022-11-30T10:49:03.540Z,6.91
2022-11-30T10:50:03.526Z,6.82
2022-11-30T10:51:03.016Z,6.88
2022-11-30T10:52:03.686Z,6.97
2022-11-30T10:53:03.511Z,6.83
2022-11-30T10:54:03.462Z,6.9
2022-11-30T10:55:09.081Z,6.73
2022-11-30T10:56:02.936Z,6.85
2022-11-30T10:57:03.166Z,6.8
2022-11-30T10:58:03.400Z,6.78
2022-11-30T10:59:03.131Z,6.79
2022-11-30T11:00:03.121Z,6.76
2022-11-30T11:01:03.092Z,6.83
2022-11-30T11:02:03.603Z,6.75
2022-11-30T11:03:03.454Z,6.75
2022-11-30T11:04:03.583Z,6.7
2022-11-30T11:05:03.181Z,6.68
2022-11-30T11:06:03.163Z,6.67
2022-11-30T11:07:03.647Z,6.52
2022-11-30T11:08:10.206Z,6.58
2022-11-30T11:09:03.144Z,6.57
2022-11-30T11:10:03.108Z,6.46
2022-11-30T11:11:03.084Z,6.46
2022-11-30T11:12:03.327Z,6.55
2022-11-30T11:13:03.322Z,6.49
2022-11-30T11:14:03.046Z,6.57
2022-11-30T11:15:03.027Z,6.54
2022-11-30T11:16:03.527Z,6.54
2022-11-30T11:17:02.993Z,6.47
2022-11-30T11:18:03.240Z,6.43
2022-11-30T11:19:02.705Z,6.31
2022-11-30T11:20:03.206Z,6.29
2022-11-30T11:21:09.449Z,6.25
2022-11-30T11:22:02.914Z,6.24
2022-11-30T11:23:03.379Z,6.26
2022-11-30T11:24:03.624Z,6.28
2022-11-30T11:25:03.130Z,6.24
2022-11-30T11:26:02.820Z,6.09
2022-11-30T11:27:03.333Z,6.07
2022-11-30T11:28:02.799Z,6.02
2022-11-30T11:29:03.039Z,5.95
2022-11-30T11:30:02.762Z,5.92
2022-11-30T11:31:03.236Z,5.89
2022-11-30T11:32:03.277Z,5.82
2022-11-30T11:33:02.968Z,5.73
2022-11-30T11:34:03.212Z,5.8
2022-11-30T11:35:03.196Z,5.67
2022-11-30T11:36:03.178Z,5.66
2022-11-30T11:37:02.924Z,5.66
2022-11-30T11:38:02.904Z,5.54
2022-11-30T11:39:02.897Z,5.55
2022-11-30T11:40:02.904Z,5.51
2022-11-30T11:41:03.216Z,5.48
2022-11-30T11:42:02.835Z,5.44
2022-11-30T11:43:02.868Z,5.42
2022-11-30T11:44:02.793Z,5.48
2022-11-30T11:45:03.032Z,5.51
2022-11-30T11:46:03.164Z,5.57
2022-11-30T11:47:02.847Z,5.6
2022-11-30T11:48:02.477Z,5.62
2022-11-30T11:49:02.987Z,5.59
2022-11-30T11:50:02.952Z,5.57
2022-11-30T11:51:11.849Z,5.67
2022-11-30T11:52:02.665Z,5.52
2022-11-30T11:53:02.651Z,5.57
2022-11-30T11:54:02.799Z,5.49
2022-11-30T11:55:02.656Z,5.45
2022-11-30T11:56:02.907Z,5.44
2022-11-30T11:57:02.621Z,5.39
2022-11-30T11:58:02.568Z,5.34
2022-11-30T11:59:02.820Z,5.31
2022-11-30T12:00:02.798Z,5.23
2022-11-30T12:01:41.832Z,5.21
2022-11-30T12:02:02.497Z,5.21
2022-11-30T12:03:02.693Z,5.15
2022-11-30T12:04:02.871Z,5.13
2022-11-30T12:05:02.467Z,5.08
2022-11-30T12:06:02.447Z,5.13
2022-11-30T12:07:02.675Z,5.16
2022-11-30T12:08:02.821Z,5.1
2022-11-30T12:09:02.652Z,5.12
2022-11-30T12:10:02.624Z,5.06
2022-11-30T12:11:02.354Z,5.08
2022-11-30T12:12:02.649Z,5.09
2022-11-30T12:13:02.610Z,5.06
2022-11-30T12:14:02.564Z,5.05
2022-11-30T12:15:02.577Z,5.12
2022-11-30T12:16:02.566Z,5.12
2022-11-30T12:17:02.521Z,5.03
2022-11-30T12:18:02.521Z,5.09
2022-11-30T12:19:01.978Z,5.05
2022-11-30T12:20:02.481Z,5.1
2022-11-30T12:21:02.479Z,5.08
2022-11-30T12:22:02.434Z,5.15
2022-11-30T12:23:02.168Z,5.09
2022-11-30T12:24:02.629Z,5.16
2022-11-30T12:25:08.772Z,5.21
2022-11-30T12:26:02.157Z,5.31
2022-11-30T12:27:02.349Z,5.23
2022-11-30T12:28:02.391Z,5.26
2022-11-30T12:29:02.102Z,5.34
2022-11-30T12:30:02.039Z,5.41
2022-11-30T12:31:02.264Z,5.41
2022-11-30T12:32:02.004Z,5.51
2022-11-30T12:33:01.997Z,5.57
2022-11-30T12:34:02.229Z,5.62
2022-11-30T12:35:02.219Z,5.63
2022-11-30T12:36:02.206Z,5.57
2022-11-30T12:37:01.922Z,5.75
2022-11-30T12:38:02.135Z,5.78
2022-11-30T12:39:02.151Z,5.84
2022-11-30T12:40:01.880Z,5.89
2022-11-30T12:41:02.113Z,5.91
2022-11-30T12:42:01.587Z,5.96
2022-11-30T12:43:01.826Z,5.89
2022-11-30T12:44:02.204Z,5.85
2022-11-30T12:45:02.093Z,5.89
2022-11-30T12:46:02.051Z,5.75
2022-11-30T12:47:01.766Z,5.8
2022-11-30T12:48:01.753Z,5.85
2022-11-30T12:49:01.905Z,5.92
2022-11-30T12:50:01.983Z,5.84
2022-11-30T12:51:01.698Z,5.92
2022-11-30T12:52:01.681Z,5.98
2022-11-30T12:53:01.419Z,5.82
2022-11-30T12:54:01.667Z,5.81
2022-11-30T12:55:01.375Z,5.8
2022-11-30T12:56:01.881Z,5.77
2022-11-30T12:57:01.604Z,5.67
2022-11-30T12:58:01.580Z,5.57
2022-11-30T12:59:01.563Z,5.64
2022-11-30T13:00:01.616Z,5.55
2022-11-30T13:01:02.028Z,5.49
2022-11-30T13:02:01.698Z,5.48
2022-11-30T13:03:01.756Z,5.41
2022-11-30T13:04:01.490Z,5.44
2022-11-30T13:05:04.170Z,5.44
2022-11-30T13:06:01.704Z,5.34
2022-11-30T13:07:01.453Z,5.28
2022-11-30T13:08:01.840Z,5.23
2022-11-30T13:09:01.677Z,5.15
2022-11-30T13:10:01.127Z,5.18
2022-11-30T13:11:01.486Z,5.2
2022-11-30T13:12:01.351Z,5.15
2022-11-30T13:13:01.677Z,5.16
2022-11-30T13:14:01.326Z,5.1
2022-11-30T13:15:01.633Z,5.12
2022-11-30T13:16:01.530Z,5.12
2022-11-30T13:17:01.613Z,5.02
2022-11-30T13:18:01.253Z,5.02
2022-11-30T13:19:02.154Z,5.02
2022-11-30T13:20:01.887Z,5.03
2022-11-30T13:21:09.468Z,5.06
2022-11-30T13:22:01.594Z,5.13
2022-11-30T13:23:01.856Z,5.02
2022-11-30T13:24:01.832Z,5.12
2022-11-30T13:25:01.550Z,5
2022-11-30T13:26:12.780Z,4.95
2022-11-30T13:27:01.520Z,4.91
2022-11-30T13:28:03.123Z,4.94
2022-11-30T13:29:01.996Z,4.92
2022-11-30T13:30:01.722Z,4.91
2022-11-30T13:31:02.152Z,4.79
2022-11-30T13:32:02.130Z,4.9
2022-11-30T13:33:03.348Z,4.85
2022-11-30T13:34:01.651Z,4.92
2022-11-30T13:35:01.639Z,4.88
2022-11-30T13:36:01.881Z,4.84
2022-11-30T13:37:01.600Z,4.87
2022-11-30T13:38:40.822Z,4.84
2022-11-30T13:39:01.570Z,4.9
2022-11-30T13:40:01.806Z,4.87
2022-11-30T13:41:01.538Z,4.92
2022-11-30T13:42:01.520Z,4.92
2022-11-30T13:43:01.268Z,4.87
2022-11-30T13:44:01.482Z,4.79
2022-11-30T13:45:01.474Z,4.84
2022-11-30T13:46:01.449Z,4.74
2022-11-30T13:47:01.873Z,4.85
2022-11-30T13:48:01.487Z,4.83
2022-11-30T13:49:01.683Z,4.79
2022-11-30T13:50:01.340Z,4.75